sensor_id;sensor_type;location;lat;lon;timestamp;pressure;altitude;pressure_sealevel;temperature
40047;BMP280;31510;48.122;11.576;2023-01-01T00:01:41;96035.91;;;10.64
40047;BMP280;31510;48.122;11.576;2023-01-01T00:04:10;96034.63;;;10.68
40047;BMP280;31510;48.122;11.576;2023-01-01T00:06:35;96036.44;;;10.71
40047;BMP280;31510;48.122;11.576;2023-01-01T00:09:01;96035.25;;;10.72
40047;BMP280;31510;48.122;11.576;2023-01-01T00:11:45;96044.34;;;10.75
40047;BMP280;31510;48.122;11.576;2023-01-01T00:14:10;96043.13;;;10.75
40047;BMP280;31510;48.122;11.576;2023-01-01T00:16:35;96064.16;;;10.74
40047;BMP280;31510;48.122;11.576;2023-01-01T00:19:01;96067.25;;;10.72
40047;BMP280;31510;48.122;11.576;2023-01-01T00:21:26;96068.00;;;10.73
40047;BMP280;31510;48.122;11.576;2023-01-01T00:23:52;96092.75;;;10.73
40047;BMP280;31510;48.122;11.576;2023-01-01T00:26:17;96088.16;;;10.74
40047;BMP280;31510;48.122;11.576;2023-01-01T00:28:43;96075.56;;;10.74
40047;BMP280;31510;48.122;11.576;2023-01-01T00:31:12;96076.09;;;10.69
40047;BMP280;31510;48.122;11.576;2023-01-01T00:33:38;96087.66;;;10.66
40047;BMP280;31510;48.122;11.576;2023-01-01T00:36:23;96085.09;;;10.63
40047;BMP280;31510;48.122;11.576;2023-01-01T00:38:49;96089.81;;;10.59
40047;BMP280;31510;48.122;11.576;2023-01-01T00:41:16;96095.25;;;10.55
40047;BMP280;31510;48.122;11.576;2023-01-01T00:43:42;96095.34;;;10.52
40047;BMP280;31510;48.122;11.576;2023-01-01T00:46:08;96091.59;;;10.49
40047;BMP280;31510;48.122;11.576;2023-01-01T00:48:34;96097.03;;;10.46
40047;BMP280;31510;48.122;11.576;2023-01-01T00:50:59;96097.91;;;10.43
40047;BMP280;31510;48.122;11.576;2023-01-01T00:53:25;96105.25;;;10.39
40047;BMP280;31510;48.122;11.576;2023-01-01T00:55:51;96104.63;;;10.35
40047;BMP280;31510;48.122;11.576;2023-01-01T00:58:18;96113.44;;;10.32
40047;BMP280;31510;48.122;11.576;2023-01-01T01:00:44;96107.16;;;10.26
40047;BMP280;31510;48.122;11.576;2023-01-01T01:03:11;96101.19;;;10.22
40047;BMP280;31510;48.122;11.576;2023-01-01T01:05:53;96110.03;;;10.19
40047;BMP280;31510;48.122;11.576;2023-01-01T01:08:18;96113.88;;;10.18
40047;BMP280;31510;48.122;11.576;2023-01-01T01:10:43;96110.78;;;10.20
40047;BMP280;31510;48.122;11.576;2023-01-01T01:13:08;96111.53;;;10.20
40047;BMP280;31510;48.122;11.576;2023-01-01T01:15:34;96105.88;;;10.18
40047;BMP280;31510;48.122;11.576;2023-01-01T01:17:59;96117.72;;;10.17
40047;BMP280;31510;48.122;11.576;2023-01-01T01:20:24;96116.22;;;10.16
40047;BMP280;31510;48.122;11.576;2023-01-01T01:22:50;96124.97;;;10.17
40047;BMP280;31510;48.122;11.576;2023-01-01T01:25:24;96133.06;;;10.13
40047;BMP280;31510;48.122;11.576;2023-01-01T01:27:59;96125.91;;;10.10
40047;BMP280;31510;48.122;11.576;2023-01-01T01:30:24;96134.31;;;10.09
40047;BMP280;31510;48.122;11.576;2023-01-01T01:32:50;96135.50;;;10.08
40047;BMP280;31510;48.122;11.576;2023-01-01T01:35:15;96130.19;;;10.08
40047;BMP280;31510;48.122;11.576;2023-01-01T01:37:40;96132.06;;;10.07
40047;BMP280;31510;48.122;11.576;2023-01-01T01:40:06;96133.25;;;10.06
40047;BMP280;31510;48.122;11.576;2023-01-01T01:42:31;96133.69;;;10.05
40047;BMP280;31510;48.122;11.576;2023-01-01T01:44:59;96131.75;;;10.05
40047;BMP280;31510;48.122;11.576;2023-01-01T01:47:54;96136.66;;;10.07
40047;BMP280;31510;48.122;11.576;2023-01-01T01:53:11;96139.22;;;10.10
40047;BMP280;31510;48.122;11.576;2023-01-01T01:55:44;96133.91;;;10.10
40047;BMP280;31510;48.122;11.576;2023-01-01T01:58:12;96132.75;;;10.11
40047;BMP280;31510;48.122;11.576;2023-01-01T02:00:38;96130.09;;;10.11
40047;BMP280;31510;48.122;11.576;2023-01-01T02:03:08;96125.28;;;10.06
40047;BMP280;31510;48.122;11.576;2023-01-01T02:05:35;96124.19;;;10.04
40047;BMP280;31510;48.122;11.576;2023-01-01T02:08:02;96118.97;;;10.00
40047;BMP280;31510;48.122;11.576;2023-01-01T02:10:28;96119.81;;;9.97
40047;BMP280;31510;48.122;11.576;2023-01-01T02:12:53;96102.44;;;9.93
40047;BMP280;31510;48.122;11.576;2023-01-01T02:15:20;96106.34;;;9.89
40047;BMP280;31510;48.122;11.576;2023-01-01T02:17:53;96112.19;;;9.84
40047;BMP280;31510;48.122;11.576;2023-01-01T02:26:13;96116.00;;;9.83
40047;BMP280;31510;48.122;11.576;2023-01-01T02:28:59;96116.66;;;9.87
40047;BMP280;31510;48.122;11.576;2023-01-01T02:31:29;96111.69;;;9.89
40047;BMP280;31510;48.122;11.576;2023-01-01T02:33:59;96108.25;;;9.88
40047;BMP280;31510;48.122;11.576;2023-01-01T02:36:26;96106.00;;;9.87
40047;BMP280;31510;48.122;11.576;2023-01-01T02:38:55;96107.50;;;9.88
40047;BMP280;31510;48.122;11.576;2023-01-01T02:41:26;96104.41;;;9.89
40047;BMP280;31510;48.122;11.576;2023-01-01T02:43:53;96102.44;;;9.93
40047;BMP280;31510;48.122;11.576;2023-01-01T02:46:18;96102.31;;;9.96
40047;BMP280;31510;48.122;11.576;2023-01-01T02:48:49;96098.94;;;9.96
40047;BMP280;31510;48.122;11.576;2023-01-01T02:54:04;96093.34;;;9.91
40047;BMP280;31510;48.122;11.576;2023-01-01T02:59:19;96100.09;;;9.95
40047;BMP280;31510;48.122;11.576;2023-01-01T03:05:09;96109.16;;;9.97
40047;BMP280;31510;48.122;11.576;2023-01-01T03:11:07;96105.00;;;9.96
40047;BMP280;31510;48.122;11.576;2023-01-01T03:13:26;96100.41;;;9.97
40047;BMP280;31510;48.122;11.576;2023-01-01T03:18:43;96101.59;;;9.96
40047;BMP280;31510;48.122;11.576;2023-01-01T03:21:09;96100.50;;;9.94
40047;BMP280;31510;48.122;11.576;2023-01-01T03:23:40;96104.75;;;9.91
40047;BMP280;31510;48.122;11.576;2023-01-01T03:26:08;96110.06;;;9.91
40047;BMP280;31510;48.122;11.576;2023-01-01T03:28:39;96105.50;;;9.92
40047;BMP280;31510;48.122;11.576;2023-01-01T03:31:07;96109.34;;;9.91
40047;BMP280;31510;48.122;11.576;2023-01-01T03:33:37;96112.00;;;9.91
40047;BMP280;31510;48.122;11.576;2023-01-01T03:36:23;96113.88;;;9.90
40047;BMP280;31510;48.122;11.576;2023-01-01T03:38:55;96127.75;;;9.85
40047;BMP280;31510;48.122;11.576;2023-01-01T03:41:36;96118.78;;;9.79
40047;BMP280;31510;48.122;11.576;2023-01-01T03:44:06;96129.53;;;9.76
40047;BMP280;31510;48.122;11.576;2023-01-01T03:46:35;96129.94;;;9.74
40047;BMP280;31510;48.122;11.576;2023-01-01T03:49:02;96128.88;;;9.72
40047;BMP280;31510;48.122;11.576;2023-01-01T03:51:39;96131.94;;;9.70
40047;BMP280;31510;48.122;11.576;2023-01-01T03:54:29;96142.06;;;9.63
40047;BMP280;31510;48.122;11.576;2023-01-01T03:59:57;96158.22;;;9.56
40047;BMP280;31510;48.122;11.576;2023-01-01T04:02:27;96159.03;;;9.53
40047;BMP280;31510;48.122;11.576;2023-01-01T04:04:55;96150.72;;;9.51
40047;BMP280;31510;48.122;11.576;2023-01-01T04:07:21;96150.00;;;9.51
40047;BMP280;31510;48.122;11.576;2023-01-01T04:09:49;96153.81;;;9.50
40047;BMP280;31510;48.122;11.576;2023-01-01T04:12:17;96153.56;;;9.44
40047;BMP280;31510;48.122;11.576;2023-01-01T04:14:43;96164.72;;;9.39
40047;BMP280;31510;48.122;11.576;2023-01-01T04:17:10;96150.75;;;9.35
40047;BMP280;31510;48.122;11.576;2023-01-01T04:19:36;96144.69;;;9.35
40047;BMP280;31510;48.122;11.576;2023-01-01T04:22:01;96142.44;;;9.33
40047;BMP280;31510;48.122;11.576;2023-01-01T04:24:27;96149.59;;;9.36
40047;BMP280;31510;48.122;11.576;2023-01-01T04:26:53;96143.09;;;9.37
40047;BMP280;31510;48.122;11.576;2023-01-01T04:29:19;96145.75;;;9.37
40047;BMP280;31510;48.122;11.576;2023-01-01T04:31:45;96147.28;;;9.38
40047;BMP280;31510;48.122;11.576;2023-01-01T04:34:10;96143.88;;;9.38
40047;BMP280;31510;48.122;11.576;2023-01-01T04:36:36;96149.28;;;9.34
40047;BMP280;31510;48.122;11.576;2023-01-01T04:39:02;96155.34;;;9.35
40047;BMP280;31510;48.122;11.576;2023-01-01T04:41:28;96161.72;;;9.37
40047;BMP280;31510;48.122;11.576;2023-01-01T04:43:53;96157.25;;;9.34
40047;BMP280;31510;48.122;11.576;2023-01-01T04:46:19;96160.25;;;9.36
40047;BMP280;31510;48.122;11.576;2023-01-01T04:48:45;96161.00;;;9.37
40047;BMP280;31510;48.122;11.576;2023-01-01T04:51:13;96164.06;;;9.35
40047;BMP280;31510;48.122;11.576;2023-01-01T04:53:38;96168.31;;;9.33
40047;BMP280;31510;48.122;11.576;2023-01-01T04:56:04;96163.09;;;9.29
40047;BMP280;31510;48.122;11.576;2023-01-01T04:58:31;96171.72;;;9.33
40047;BMP280;31510;48.122;11.576;2023-01-01T05:00:57;96160.66;;;9.35
40047;BMP280;31510;48.122;11.576;2023-01-01T05:03:22;96163.97;;;9.39
40047;BMP280;31510;48.122;11.576;2023-01-01T05:08:30;96168.31;;;9.33
40047;BMP280;31510;48.122;11.576;2023-01-01T05:11:04;96165.00;;;9.29
40047;BMP280;31510;48.122;11.576;2023-01-01T05:13:30;96168.81;;;9.28
40047;BMP280;31510;48.122;11.576;2023-01-01T05:15:55;96182.13;;;9.28
40047;BMP280;31510;48.122;11.576;2023-01-01T05:18:21;96180.22;;;9.28
40047;BMP280;31510;48.122;11.576;2023-01-01T05:20:47;96177.88;;;9.30
40047;BMP280;31510;48.122;11.576;2023-01-01T05:23:14;96177.78;;;9.34
40047;BMP280;31510;48.122;11.576;2023-01-01T05:25:40;96182.69;;;9.35
40047;BMP280;31510;48.122;11.576;2023-01-01T05:28:06;96182.28;;;9.37
40047;BMP280;31510;48.122;11.576;2023-01-01T05:30:31;96181.22;;;9.34
40047;BMP280;31510;48.122;11.576;2023-01-01T05:32:57;96180.13;;;9.32
40047;BMP280;31510;48.122;11.576;2023-01-01T05:35:23;96179.81;;;9.30
40047;BMP280;31510;48.122;11.576;2023-01-01T05:37:48;96169.25;;;9.26
40047;BMP280;31510;48.122;11.576;2023-01-01T05:40:15;96182.22;;;9.24
40047;BMP280;31510;48.122;11.576;2023-01-01T05:42:40;96171.25;;;9.22
40047;BMP280;31510;48.122;11.576;2023-01-01T05:45:06;96177.06;;;9.17
40047;BMP280;31510;48.122;11.576;2023-01-01T05:47:31;96187.47;;;9.12
40047;BMP280;31510;48.122;11.576;2023-01-01T05:49:57;96192.03;;;9.12
40047;BMP280;31510;48.122;11.576;2023-01-01T05:52:22;96187.13;;;9.10
40047;BMP280;31510;48.122;11.576;2023-01-01T05:54:47;96181.81;;;9.10
40047;BMP280;31510;48.122;11.576;2023-01-01T05:57:12;96192.88;;;9.09
40047;BMP280;31510;48.122;11.576;2023-01-01T05:59:38;96202.84;;;9.05
40047;BMP280;31510;48.122;11.576;2023-01-01T06:02:03;96204.94;;;8.97
40047;BMP280;31510;48.122;11.576;2023-01-01T06:04:28;96203.50;;;8.93
40047;BMP280;31510;48.122;11.576;2023-01-01T06:06:53;96218.38;;;8.90
40047;BMP280;31510;48.122;11.576;2023-01-01T06:09:19;96211.88;;;8.91
40047;BMP280;31510;48.122;11.576;2023-01-01T06:11:44;96210.75;;;8.92
40047;BMP280;31510;48.122;11.576;2023-01-01T06:14:09;96221.38;;;8.92
40047;BMP280;31510;48.122;11.576;2023-01-01T06:16:34;96212.63;;;8.92
40047;BMP280;31510;48.122;11.576;2023-01-01T06:19:00;96218.03;;;8.88
40047;BMP280;31510;48.122;11.576;2023-01-01T06:21:26;96226.78;;;8.89
40047;BMP280;31510;48.122;11.576;2023-01-01T06:23:54;96216.38;;;8.94
40047;BMP280;31510;48.122;11.576;2023-01-01T06:26:24;96209.41;;;9.00
40047;BMP280;31510;48.122;11.576;2023-01-01T06:28:50;96205.84;;;9.07
40047;BMP280;31510;48.122;11.576;2023-01-01T06:31:18;96215.66;;;9.10
40047;BMP280;31510;48.122;11.576;2023-01-01T06:33:45;96222.06;;;9.12
40047;BMP280;31510;48.122;11.576;2023-01-01T06:36:12;96218.56;;;9.15
40047;BMP280;31510;48.122;11.576;2023-01-01T06:38:40;96219.22;;;9.19
40047;BMP280;31510;48.122;11.576;2023-01-01T06:41:08;96218.41;;;9.22
40047;BMP280;31510;48.122;11.576;2023-01-01T06:43:35;96228.28;;;9.21
40047;BMP280;31510;48.122;11.576;2023-01-01T06:46:05;96233.19;;;9.23
40047;BMP280;31510;48.122;11.576;2023-01-01T06:48:33;96234.00;;;9.20
40047;BMP280;31510;48.122;11.576;2023-01-01T06:51:07;96220.72;;;9.20
40047;BMP280;31510;48.122;11.576;2023-01-01T06:53:33;96221.88;;;9.19
40047;BMP280;31510;48.122;11.576;2023-01-01T06:55:58;96226.13;;;9.16
40047;BMP280;31510;48.122;11.576;2023-01-01T06:58:23;96233.03;;;9.14
40047;BMP280;31510;48.122;11.576;2023-01-01T07:00:49;96244.41;;;9.14
40047;BMP280;31510;48.122;11.576;2023-01-01T07:03:14;96247.75;;;9.18
40047;BMP280;31510;48.122;11.576;2023-01-01T07:05:39;96240.50;;;9.19
40047;BMP280;31510;48.122;11.576;2023-01-01T07:08:04;96236.66;;;9.20
40047;BMP280;31510;48.122;11.576;2023-01-01T07:10:30;96254.16;;;9.21
40047;BMP280;31510;48.122;11.576;2023-01-01T07:12:55;96248.09;;;9.20
40047;BMP280;31510;48.122;11.576;2023-01-01T07:15:20;96257.53;;;9.21
40047;BMP280;31510;48.122;11.576;2023-01-01T07:17:45;96265.94;;;9.20
40047;BMP280;31510;48.122;11.576;2023-01-01T07:20:11;96263.72;;;9.18
40047;BMP280;31510;48.122;11.576;2023-01-01T07:22:37;96269.88;;;9.15
40047;BMP280;31510;48.122;11.576;2023-01-01T07:25:03;96274.13;;;9.13
40047;BMP280;31510;48.122;11.576;2023-01-01T07:27:29;96278.66;;;9.13
40047;BMP280;31510;48.122;11.576;2023-01-01T07:29:54;96283.25;;;9.12
40047;BMP280;31510;48.122;11.576;2023-01-01T07:32:19;96276.41;;;9.11
40047;BMP280;31510;48.122;11.576;2023-01-01T07:34:44;96276.84;;;9.10
40047;BMP280;31510;48.122;11.576;2023-01-01T07:37:10;96277.66;;;9.07
40047;BMP280;31510;48.122;11.576;2023-01-01T07:39:35;96279.59;;;9.06
40047;BMP280;31510;48.122;11.576;2023-01-01T07:42:00;96284.47;;;9.08
40047;BMP280;31510;48.122;11.576;2023-01-01T07:44:25;96291.63;;;9.11
40047;BMP280;31510;48.122;11.576;2023-01-01T07:47:01;96291.22;;;9.12
40047;BMP280;31510;48.122;11.576;2023-01-01T07:49:26;96294.22;;;9.14
40047;BMP280;31510;48.122;11.576;2023-01-01T07:51:51;96305.97;;;9.16
40047;BMP280;31510;48.122;11.576;2023-01-01T07:54:17;96299.47;;;9.17
40047;BMP280;31510;48.122;11.576;2023-01-01T07:56:42;96299.88;;;9.16
40047;BMP280;31510;48.122;11.576;2023-01-01T07:59:07;96301.72;;;9.19
40047;BMP280;31510;48.122;11.576;2023-01-01T08:01:36;96316.88;;;9.22
40047;BMP280;31510;48.122;11.576;2023-01-01T08:04:02;96317.94;;;9.24
40047;BMP280;31510;48.122;11.576;2023-01-01T08:06:28;96317.13;;;9.27
40047;BMP280;31510;48.122;11.576;2023-01-01T08:08:53;96319.78;;;9.27
40047;BMP280;31510;48.122;11.576;2023-01-01T08:11:18;96318.25;;;9.26
40047;BMP280;31510;48.122;11.576;2023-01-01T08:13:43;96309.22;;;9.24
40047;BMP280;31510;48.122;11.576;2023-01-01T08:16:09;96319.09;;;9.23
40047;BMP280;31510;48.122;11.576;2023-01-01T08:18:34;96312.53;;;9.28
40047;BMP280;31510;48.122;11.576;2023-01-01T08:21:01;96316.97;;;9.34
40047;BMP280;31510;48.122;11.576;2023-01-01T08:23:26;96305.38;;;9.41
40047;BMP280;31510;48.122;11.576;2023-01-01T08:25:52;96307.13;;;9.47
40047;BMP280;31510;48.122;11.576;2023-01-01T08:28:18;96301.66;;;9.54
40047;BMP280;31510;48.122;11.576;2023-01-01T08:30:43;96303.41;;;9.60
40047;BMP280;31510;48.122;11.576;2023-01-01T08:33:08;96304.81;;;9.65
40047;BMP280;31510;48.122;11.576;2023-01-01T08:35:36;96305.06;;;9.70
40047;BMP280;31510;48.122;11.576;2023-01-01T08:38:04;96307.13;;;9.79
40047;BMP280;31510;48.122;11.576;2023-01-01T08:40:29;96308.97;;;9.82
40047;BMP280;31510;48.122;11.576;2023-01-01T08:42:54;96305.78;;;9.87
40047;BMP280;31510;48.122;11.576;2023-01-01T08:45:20;96312.16;;;9.93
40047;BMP280;31510;48.122;11.576;2023-01-01T08:47:45;96308.22;;;9.97
40047;BMP280;31510;48.122;11.576;2023-01-01T08:50:10;96313.03;;;10.02
40047;BMP280;31510;48.122;11.576;2023-01-01T08:52:35;96320.94;;;10.05
40047;BMP280;31510;48.122;11.576;2023-01-01T08:55:01;96320.44;;;10.10
40047;BMP280;31510;48.122;11.576;2023-01-01T08:57:29;96325.69;;;10.14
40047;BMP280;31510;48.122;11.576;2023-01-01T08:59:54;96324.06;;;10.16
40047;BMP280;31510;48.122;11.576;2023-01-01T09:02:20;96315.16;;;10.23
40047;BMP280;31510;48.122;11.576;2023-01-01T09:04:45;96319.25;;;10.27
40047;BMP280;31510;48.122;11.576;2023-01-01T09:07:10;96320.22;;;10.33
40047;BMP280;31510;48.122;11.576;2023-01-01T09:09:35;96316.81;;;10.33
40047;BMP280;31510;48.122;11.576;2023-01-01T09:12:01;96328.13;;;10.36
40047;BMP280;31510;48.122;11.576;2023-01-01T09:14:32;96325.03;;;10.38
40047;BMP280;31510;48.122;11.576;2023-01-01T09:16:58;96334.53;;;10.39
40047;BMP280;31510;48.122;11.576;2023-01-01T09:19:23;96331.75;;;10.42
40047;BMP280;31510;48.122;11.576;2023-01-01T09:21:49;96339.66;;;10.46
40047;BMP280;31510;48.122;11.576;2023-01-01T09:24:14;96342.25;;;10.49
40047;BMP280;31510;48.122;11.576;2023-01-01T09:26:40;96344.50;;;10.51
40047;BMP280;31510;48.122;11.576;2023-01-01T09:29:05;96337.13;;;10.55
40047;BMP280;31510;48.122;11.576;2023-01-01T09:31:30;96348.81;;;10.61
40047;BMP280;31510;48.122;11.576;2023-01-01T09:33:55;96349.88;;;10.63
40047;BMP280;31510;48.122;11.576;2023-01-01T09:38:48;96349.25;;;10.72
40047;BMP280;31510;48.122;11.576;2023-01-01T09:41:53;96357.91;;;10.75
40047;BMP280;31510;48.122;11.576;2023-01-01T09:46:47;96345.53;;;10.81
40047;BMP280;31510;48.122;11.576;2023-01-01T09:49:30;96342.03;;;10.84
40047;BMP280;31510;48.122;11.576;2023-01-01T09:51:57;96344.91;;;10.90
40047;BMP280;31510;48.122;11.576;2023-01-01T09:54:31;96331.06;;;10.95
40047;BMP280;31510;48.122;11.576;2023-01-01T09:57:02;96335.44;;;11.01
40047;BMP280;31510;48.122;11.576;2023-01-01T09:59:28;96334.06;;;11.09
40047;BMP280;31510;48.122;11.576;2023-01-01T10:07:59;96326.63;;;11.66
40047;BMP280;31510;48.122;11.576;2023-01-01T10:18:39;96310.22;;;12.01
40047;BMP280;31510;48.122;11.576;2023-01-01T10:23:52;96302.91;;;12.14
40047;BMP280;31510;48.122;11.576;2023-01-01T10:26:22;96308.38;;;12.32
40047;BMP280;31510;48.122;11.576;2023-01-01T10:29:02;96308.16;;;12.60
40047;BMP280;31510;48.122;11.576;2023-01-01T10:31:37;96308.25;;;12.77
40047;BMP280;31510;48.122;11.576;2023-01-01T10:34:22;96298.06;;;12.85
40047;BMP280;31510;48.122;11.576;2023-01-01T10:36:52;96295.56;;;12.90
40047;BMP280;31510;48.122;11.576;2023-01-01T10:39:18;96297.25;;;12.97
40047;BMP280;31510;48.122;11.576;2023-01-01T10:41:44;96286.41;;;13.00
40047;BMP280;31510;48.122;11.576;2023-01-01T10:44:11;96291.81;;;13.09
40047;BMP280;31510;48.122;11.576;2023-01-01T10:46:42;96278.03;;;13.19
40047;BMP280;31510;48.122;11.576;2023-01-01T10:49:10;96284.78;;;13.33
40047;BMP280;31510;48.122;11.576;2023-01-01T10:51:44;96272.28;;;13.39
40047;BMP280;31510;48.122;11.576;2023-01-01T10:54:47;96277.50;;;13.42
40047;BMP280;31510;48.122;11.576;2023-01-01T10:57:26;96274.69;;;13.46
40047;BMP280;31510;48.122;11.576;2023-01-01T10:59:53;96276.50;;;13.49
40047;BMP280;31510;48.122;11.576;2023-01-01T11:02:21;96276.38;;;13.52
40047;BMP280;31510;48.122;11.576;2023-01-01T11:04:49;96271.03;;;13.61
40047;BMP280;31510;48.122;11.576;2023-01-01T11:07:27;96275.19;;;13.62
40047;BMP280;31510;48.122;11.576;2023-01-01T11:09:58;96276.38;;;13.61
40047;BMP280;31510;48.122;11.576;2023-01-01T11:12:36;96270.41;;;13.57
40047;BMP280;31510;48.122;11.576;2023-01-01T11:15:03;96267.84;;;13.54
40047;BMP280;31510;48.122;11.576;2023-01-01T11:17:31;96270.69;;;13.50
40047;BMP280;31510;48.122;11.576;2023-01-01T11:19:57;96259.53;;;13.52
40047;BMP280;31510;48.122;11.576;2023-01-01T11:25:09;96250.03;;;13.59
40047;BMP280;31510;48.122;11.576;2023-01-01T11:27:41;96239.47;;;13.65
40047;BMP280;31510;48.122;11.576;2023-01-01T11:32:52;96229.34;;;13.87
40047;BMP280;31510;48.122;11.576;2023-01-01T11:35:20;96229.66;;;13.89
40047;BMP280;31510;48.122;11.576;2023-01-01T11:37:50;96228.47;;;13.90
40047;BMP280;31510;48.122;11.576;2023-01-01T11:40:19;96231.91;;;13.90
40047;BMP280;31510;48.122;11.576;2023-01-01T11:42:48;96222.38;;;13.89
40047;BMP280;31510;48.122;11.576;2023-01-01T11:47:51;96223.69;;;13.85
40047;BMP280;31510;48.122;11.576;2023-01-01T11:50:35;96215.38;;;13.83
40047;BMP280;31510;48.122;11.576;2023-01-01T11:53:26;96210.88;;;13.80
40047;BMP280;31510;48.122;11.576;2023-01-01T12:04:22;96199.28;;;13.92
40047;BMP280;31510;48.122;11.576;2023-01-01T12:06:57;96200.78;;;13.93
40047;BMP280;31510;48.122;11.576;2023-01-01T12:09:37;96196.16;;;13.93
40047;BMP280;31510;48.122;11.576;2023-01-01T12:12:27;96200.31;;;13.94
40047;BMP280;31510;48.122;11.576;2023-01-01T12:14:59;96202.84;;;13.97
40047;BMP280;31510;48.122;11.576;2023-01-01T12:20:18;96203.06;;;14.03
40047;BMP280;31510;48.122;11.576;2023-01-01T12:22:46;96194.66;;;14.01
40047;BMP280;31510;48.122;11.576;2023-01-01T12:25:14;96194.66;;;14.01
40047;BMP280;31510;48.122;11.576;2023-01-01T12:30:38;96200.81;;;14.10
40047;BMP280;31510;48.122;11.576;2023-01-01T12:33:25;96187.69;;;14.12
40047;BMP280;31510;48.122;11.576;2023-01-01T12:49:44;96165.16;;;14.28
40047;BMP280;31510;48.122;11.576;2023-01-01T12:57:50;96170.38;;;14.31
40047;BMP280;31510;48.122;11.576;2023-01-01T13:00:19;96166.66;;;14.29
40047;BMP280;31510;48.122;11.576;2023-01-01T13:03:18;96164.13;;;14.25
40047;BMP280;31510;48.122;11.576;2023-01-01T13:05:47;96167.25;;;14.24
40047;BMP280;31510;48.122;11.576;2023-01-01T13:08:14;96171.13;;;14.23
40047;BMP280;31510;48.122;11.576;2023-01-01T13:10:42;96165.47;;;14.21
40047;BMP280;31510;48.122;11.576;2023-01-01T13:13:09;96172.47;;;14.18
40047;BMP280;31510;48.122;11.576;2023-01-01T13:20:40;96170.09;;;14.20
40047;BMP280;31510;48.122;11.576;2023-01-01T13:42:40;96166.81;;;13.98
40047;BMP280;31510;48.122;11.576;2023-01-01T13:45:28;96176.19;;;13.94
40047;BMP280;31510;48.122;11.576;2023-01-01T13:58:57;96175.75;;;13.87
40047;BMP280;31510;48.122;11.576;2023-01-01T14:01:39;96183.19;;;13.83
40047;BMP280;31510;48.122;11.576;2023-01-01T14:04:16;96178.44;;;13.78
40047;BMP280;31510;48.122;11.576;2023-01-01T14:06:48;96179.94;;;13.70
40047;BMP280;31510;48.122;11.576;2023-01-01T14:09:15;96172.91;;;13.63
40047;BMP280;31510;48.122;11.576;2023-01-01T14:11:43;96183.47;;;13.58
40047;BMP280;31510;48.122;11.576;2023-01-01T14:14:27;96176.03;;;13.53
40047;BMP280;31510;48.122;11.576;2023-01-01T14:16:58;96176.16;;;13.50
40047;BMP280;31510;48.122;11.576;2023-01-01T14:19:25;96175.44;;;13.49
40047;BMP280;31510;48.122;11.576;2023-01-01T14:21:51;96180.06;;;13.49
40047;BMP280;31510;48.122;11.576;2023-01-01T14:24:19;96174.69;;;13.49
40047;BMP280;31510;48.122;11.576;2023-01-01T14:26:45;96174.84;;;13.54
40047;BMP280;31510;48.122;11.576;2023-01-01T14:29:18;96169.19;;;13.61
40047;BMP280;31510;48.122;11.576;2023-01-01T14:31:45;96180.38;;;13.68
40047;BMP280;31510;48.122;11.576;2023-01-01T14:36:54;96184.06;;;13.71
40047;BMP280;31510;48.122;11.576;2023-01-01T14:39:33;96182.47;;;13.64
40047;BMP280;31510;48.122;11.576;2023-01-01T14:42:02;96189.13;;;13.60
40047;BMP280;31510;48.122;11.576;2023-01-01T14:44:36;96177.97;;;13.53
40047;BMP280;31510;48.122;11.576;2023-01-01T14:47:03;96182.41;;;13.47
40047;BMP280;31510;48.122;11.576;2023-01-01T14:49:32;96176.03;;;13.44
40047;BMP280;31510;48.122;11.576;2023-01-01T14:52:06;96173.94;;;13.48
40047;BMP280;31510;48.122;11.576;2023-01-01T14:54:36;96171.69;;;13.47
40047;BMP280;31510;48.122;11.576;2023-01-01T14:57:02;96174.56;;;13.52
40047;BMP280;31510;48.122;11.576;2023-01-01T14:59:32;96179.63;;;13.68
40047;BMP280;31510;48.122;11.576;2023-01-01T15:02:08;96183.78;;;13.78
40047;BMP280;31510;48.122;11.576;2023-01-01T15:04:36;96185.88;;;13.83
40047;BMP280;31510;48.122;11.576;2023-01-01T15:07:01;96188.41;;;13.86
40047;BMP280;31510;48.122;11.576;2023-01-01T15:09:27;96190.78;;;13.84
40047;BMP280;31510;48.122;11.576;2023-01-01T15:11:55;96202.69;;;13.83
40047;BMP280;31510;48.122;11.576;2023-01-01T15:19:25;96195.09;;;13.73
40047;BMP280;31510;48.122;11.576;2023-01-01T15:21:51;96185.72;;;13.68
40047;BMP280;31510;48.122;11.576;2023-01-01T15:24:18;96184.06;;;13.62
40047;BMP280;31510;48.122;11.576;2023-01-01T15:26:55;96184.97;;;13.59
40047;BMP280;31510;48.122;11.576;2023-01-01T15:31:55;96184.94;;;13.50
40047;BMP280;31510;48.122;11.576;2023-01-01T15:34:24;96187.75;;;13.47
40047;BMP280;31510;48.122;11.576;2023-01-01T15:36:52;96180.47;;;13.38
40047;BMP280;31510;48.122;11.576;2023-01-01T15:39:19;96185.22;;;13.34
40047;BMP280;31510;48.122;11.576;2023-01-01T15:41:48;96181.19;;;13.30
40047;BMP280;31510;48.122;11.576;2023-01-01T15:46:44;96176.13;;;13.23
40047;BMP280;31510;48.122;11.576;2023-01-01T15:49:20;96189.66;;;13.19
40047;BMP280;31510;48.122;11.576;2023-01-01T15:51:46;96196.31;;;13.15
40047;BMP280;31510;48.122;11.576;2023-01-01T15:54:14;96196.03;;;13.13
40047;BMP280;31510;48.122;11.576;2023-01-01T15:56:40;96190.06;;;13.09
40047;BMP280;31510;48.122;11.576;2023-01-01T15:59:30;96192.56;;;13.04
40047;BMP280;31510;48.122;11.576;2023-01-01T16:02:14;96192.41;;;12.98
40047;BMP280;31510;48.122;11.576;2023-01-01T16:04:45;96192.25;;;12.93
40047;BMP280;31510;48.122;11.576;2023-01-01T16:07:18;96190.44;;;12.90
40047;BMP280;31510;48.122;11.576;2023-01-01T16:09:45;96197.88;;;12.86
40047;BMP280;31510;48.122;11.576;2023-01-01T16:12:11;96198.00;;;12.82
40047;BMP280;31510;48.122;11.576;2023-01-01T16:14:36;96201.66;;;12.76
40047;BMP280;31510;48.122;11.576;2023-01-01T16:17:01;96205.78;;;12.68
40047;BMP280;31510;48.122;11.576;2023-01-01T16:19:29;96203.38;;;12.61
40047;BMP280;31510;48.122;11.576;2023-01-01T16:21:55;96209.84;;;12.51
40047;BMP280;31510;48.122;11.576;2023-01-01T16:24:20;96203.28;;;12.43
40047;BMP280;31510;48.122;11.576;2023-01-01T16:26:46;96205.00;;;12.37
40047;BMP280;31510;48.122;11.576;2023-01-01T16:29:12;96192.66;;;12.31
40047;BMP280;31510;48.122;11.576;2023-01-01T16:31:37;96195.16;;;12.26